createdAt,value
2019-01-14T00:01:30.481Z,7.50
2019-01-14T00:03:59.676Z,7.50
2019-01-14T00:06:29.106Z,7.50
2019-01-14T00:08:58.064Z,7.50
2019-01-14T00:11:27.276Z,7.40
2019-01-14T00:13:56.215Z,7.40
2019-01-14T00:16:25.465Z,7.40
2019-01-14T00:18:54.606Z,7.50
2019-01-14T00:21:23.715Z,7.40
2019-01-14T00:23:52.644Z,7.40
2019-01-14T00:26:21.738Z,7.30
2019-01-14T00:28:50.770Z,7.20
2019-01-14T00:31:20.095Z,7.20
2019-01-14T00:33:49.626Z,7.10
2019-01-14T00:36:18.680Z,6.90
2019-01-14T00:38:47.821Z,6.90
2019-01-14T00:41:16.826Z,6.80
2019-01-14T00:43:45.906Z,6.80
2019-01-14T00:46:15.274Z,6.90
2019-01-14T00:48:44.170Z,6.90
2019-01-14T00:51:13.105Z,6.90
2019-01-14T00:53:42.300Z,6.80
2019-01-14T00:56:11.485Z,6.90
2019-01-14T00:58:40.648Z,6.80
2019-01-14T01:01:09.879Z,6.90
2019-01-14T01:03:38.979Z,7.00
2019-01-14T01:06:08.058Z,6.90
2019-01-14T01:08:37.187Z,6.80
2019-01-14T01:11:06.372Z,6.90
2019-01-14T01:13:35.803Z,6.90
2019-01-14T01:16:04.915Z,7.00
2019-01-14T01:18:33.967Z,6.90
2019-01-14T01:21:03.727Z,6.90
2019-01-14T01:23:32.818Z,6.80
2019-01-14T01:26:01.779Z,6.70
2019-01-14T01:28:30.772Z,6.60
2019-01-14T01:30:59.669Z,6.60
2019-01-14T01:33:28.621Z,6.70
2019-01-14T01:35:57.650Z,6.80
2019-01-14T01:38:26.801Z,6.90
2019-01-14T01:40:55.878Z,6.80
2019-01-14T01:43:24.811Z,6.70
2019-01-14T01:45:53.804Z,6.70
2019-01-14T01:48:22.812Z,6.60
2019-01-14T01:50:51.706Z,6.60
2019-01-14T01:53:20.608Z,6.60
2019-01-14T01:55:49.593Z,6.60
2019-01-14T01:58:18.581Z,6.60
2019-01-14T02:00:47.619Z,6.50
2019-01-14T02:03:16.603Z,6.60
2019-01-14T02:05:45.729Z,6.60
2019-01-14T02:08:14.670Z,6.60
2019-01-14T02:10:43.732Z,6.60
2019-01-14T02:13:12.659Z,6.60
2019-01-14T02:15:41.874Z,6.60
2019-01-14T02:18:10.915Z,6.70
2019-01-14T02:20:39.830Z,6.70
2019-01-14T02:23:08.754Z,6.60
2019-01-14T02:25:37.934Z,6.60
2019-01-14T02:28:06.830Z,6.50
2019-01-14T02:30:35.836Z,6.60
2019-01-14T02:33:04.848Z,6.60
2019-01-14T02:35:33.842Z,6.50
2019-01-14T02:38:02.789Z,6.50
2019-01-14T02:40:31.703Z,6.50
2019-01-14T02:43:00.787Z,6.50
2019-01-14T02:45:29.797Z,6.50
2019-01-14T02:47:58.701Z,6.50
2019-01-14T02:50:27.729Z,6.50
2019-01-14T02:52:56.835Z,6.50
2019-01-14T02:55:25.844Z,6.50
2019-01-14T02:57:54.808Z,6.60
2019-01-14T03:00:27.291Z,6.60
2019-01-14T03:02:56.363Z,6.50
2019-01-14T03:05:25.754Z,6.50
2019-01-14T03:07:54.752Z,6.50
2019-01-14T03:10:23.801Z,6.50
2019-01-14T03:12:52.849Z,6.50
2019-01-14T03:15:22.026Z,6.50
2019-01-14T03:17:51.148Z,6.50
2019-01-14T03:20:20.213Z,6.60
2019-01-14T03:22:49.536Z,6.60
2019-01-14T03:25:18.659Z,6.50
2019-01-14T03:27:47.916Z,6.50
2019-01-14T03:30:19.213Z,6.40
2019-01-14T03:32:48.436Z,6.40
2019-01-14T03:35:17.781Z,6.30
2019-01-14T03:37:46.939Z,6.30
2019-01-14T03:40:17.611Z,6.20
2019-01-14T03:42:46.683Z,6.20
2019-01-14T03:45:15.827Z,6.10
2019-01-14T03:47:44.924Z,6.20
2019-01-14T03:50:20.580Z,6.20
2019-01-14T03:52:49.874Z,6.20
2019-01-14T03:55:18.876Z,6.10
2019-01-14T03:57:47.978Z,6.00
2019-01-14T04:00:18.134Z,6.10
2019-01-14T04:02:47.224Z,6.00
2019-01-14T04:05:16.277Z,6.10
2019-01-14T04:07:45.394Z,6.10
2019-01-14T04:10:16.183Z,6.00
2019-01-14T04:12:45.298Z,5.90
2019-01-14T04:15:16.107Z,6.00
2019-01-14T04:17:46.411Z,6.00
2019-01-14T04:20:16.551Z,5.80
2019-01-14T04:22:45.711Z,5.80
2019-01-14T04:25:14.831Z,5.80
2019-01-14T04:27:43.870Z,5.90
2019-01-14T04:30:16.047Z,5.80
2019-01-14T04:32:44.970Z,5.70
2019-01-14T04:35:13.993Z,5.60
2019-01-14T04:37:43.123Z,5.60
2019-01-14T04:40:12.449Z,5.60
2019-01-14T04:42:41.522Z,5.50
2019-01-14T04:45:11.361Z,5.40
2019-01-14T04:47:40.382Z,5.50
2019-01-14T04:50:11.533Z,5.40
2019-01-14T04:52:40.727Z,5.30
2019-01-14T04:55:09.950Z,5.40
2019-01-14T04:57:39.109Z,5.30
2019-01-14T05:00:14.283Z,5.30
2019-01-14T05:02:43.427Z,5.10
2019-01-14T05:05:12.701Z,5.20
2019-01-14T05:07:41.878Z,5.20
2019-01-14T05:10:12.665Z,5.20
2019-01-14T05:12:41.785Z,5.20
2019-01-14T05:15:12.152Z,5.10
2019-01-14T05:17:41.251Z,5.20
2019-01-14T05:20:37.885Z,5.30
2019-01-14T05:23:06.943Z,5.30
2019-01-14T05:25:39.219Z,5.30
2019-01-14T05:28:08.287Z,5.30
2019-01-14T05:30:37.841Z,5.20
2019-01-14T05:33:07.103Z,5.30
2019-01-14T05:35:36.808Z,5.40
2019-01-14T05:38:06.074Z,5.40
2019-01-14T05:40:35.180Z,5.40
2019-01-14T05:43:04.345Z,5.30
2019-01-14T05:45:33.545Z,5.40
2019-01-14T05:48:02.949Z,5.40
2019-01-14T05:50:32.024Z,5.40
2019-01-14T05:53:00.935Z,5.30
2019-01-14T05:55:29.981Z,5.30
2019-01-14T05:57:59.125Z,5.30
2019-01-14T06:00:38.680Z,5.30
2019-01-14T06:03:07.794Z,5.30
2019-01-14T06:05:36.869Z,5.20
2019-01-14T06:08:06.174Z,5.30
2019-01-14T06:10:35.350Z,5.30
2019-01-14T06:13:04.862Z,5.30
2019-01-14T06:15:33.884Z,5.30
2019-01-14T06:18:03.112Z,5.30
2019-01-14T06:20:32.481Z,5.30
2019-01-14T06:23:01.584Z,5.20
2019-01-14T06:25:30.541Z,5.20
2019-01-14T06:27:59.659Z,5.20
2019-01-14T06:30:29.743Z,5.10
2019-01-14T06:32:58.855Z,5.10
2019-01-14T06:35:28.091Z,5.00
2019-01-14T06:37:57.472Z,5.10
2019-01-14T06:40:26.632Z,5.00
2019-01-14T06:42:55.715Z,5.10
2019-01-14T06:45:24.821Z,5.20
2019-01-14T06:47:53.923Z,5.20
2019-01-14T06:50:23.124Z,5.20
2019-01-14T06:52:52.329Z,5.10
2019-01-14T06:55:21.416Z,4.70
2019-01-14T06:57:50.513Z,4.40
2019-01-14T07:00:26.473Z,4.10
2019-01-14T07:02:55.516Z,3.90
2019-01-14T07:05:24.510Z,3.80
2019-01-14T07:07:59.572Z,3.80
2019-01-14T07:10:26.765Z,3.90
2019-01-14T07:12:55.894Z,4.00
2019-01-14T07:15:25.047Z,4.10
2019-01-14T07:17:54.968Z,4.30
2019-01-14T07:20:24.314Z,4.40
2019-01-14T07:22:53.367Z,4.30
2019-01-14T07:25:22.592Z,4.30
2019-01-14T07:27:51.746Z,4.30
2019-01-14T07:30:21.487Z,4.40
2019-01-14T07:32:50.959Z,4.40
2019-01-14T07:35:20.223Z,4.40
2019-01-14T07:37:49.426Z,4.40
2019-01-14T07:40:19.230Z,4.40
2019-01-14T07:42:48.807Z,4.40
2019-01-14T07:45:19.067Z,4.40
2019-01-14T07:47:48.204Z,4.40
2019-01-14T07:50:18.118Z,4.50
2019-01-14T07:52:48.890Z,4.60
2019-01-14T07:55:17.971Z,4.70
2019-01-14T07:57:46.968Z,4.70
2019-01-14T08:00:24.975Z,4.80
2019-01-14T08:02:54.233Z,4.80
2019-01-14T08:05:23.505Z,4.80
2019-01-14T08:07:52.604Z,4.80
2019-01-14T08:10:21.649Z,4.80
2019-01-14T08:12:50.586Z,4.90
2019-01-14T08:15:21.423Z,4.80
2019-01-14T08:17:50.686Z,4.70
2019-01-14T08:20:19.700Z,4.60
2019-01-14T08:22:49.042Z,4.70
2019-01-14T08:25:18.258Z,4.80
2019-01-14T08:27:47.398Z,4.70
2019-01-14T08:30:19.013Z,4.60
2019-01-14T08:32:48.180Z,4.60
2019-01-14T08:35:17.480Z,4.70
2019-01-14T08:37:46.506Z,4.60
2019-01-14T08:40:16.883Z,4.60
2019-01-14T08:42:45.873Z,4.70
2019-01-14T08:45:15.040Z,4.70
2019-01-14T08:47:44.304Z,4.70
2019-01-14T08:50:18.914Z,4.60
2019-01-14T08:52:48.278Z,4.60
2019-01-14T08:55:17.539Z,4.60
2019-01-14T08:57:46.699Z,4.50
2019-01-14T09:00:20.553Z,4.40
2019-01-14T09:02:49.606Z,4.40
2019-01-14T09:05:18.838Z,4.50
2019-01-14T09:07:48.052Z,4.50
2019-01-14T09:10:20.734Z,4.50
2019-01-14T09:12:49.799Z,4.50
2019-01-14T09:15:18.999Z,4.50
2019-01-14T09:17:48.550Z,4.40
2019-01-14T09:20:19.443Z,4.40
2019-01-14T09:22:49.310Z,4.40
2019-01-14T09:25:18.638Z,4.50
2019-01-14T09:27:48.086Z,4.40
2019-01-14T09:30:22.755Z,4.40
2019-01-14T09:32:51.992Z,4.40
2019-01-14T09:35:21.262Z,4.50
2019-01-14T09:37:50.319Z,4.50
2019-01-14T09:40:22.390Z,4.50
2019-01-14T09:42:51.673Z,4.60
2019-01-14T09:45:21.037Z,4.70
2019-01-14T09:47:50.254Z,4.70
2019-01-14T09:50:19.297Z,4.80
2019-01-14T09:52:48.474Z,4.70
2019-01-14T09:55:18.856Z,4.80
2019-01-14T09:57:48.103Z,4.80
2019-01-14T10:00:17.243Z,4.80
2019-01-14T10:02:47.042Z,4.70
2019-01-14T10:05:18.197Z,4.80
2019-01-14T10:07:47.969Z,4.80
2019-01-14T10:10:18.513Z,4.90
2019-01-14T10:12:48.092Z,4.70
2019-01-14T10:15:22.556Z,4.90
2019-01-14T10:17:56.858Z,4.90
2019-01-14T10:20:26.561Z,4.90
2019-01-14T10:22:55.747Z,4.90
2019-01-14T10:25:25.155Z,5.00
2019-01-14T10:27:54.417Z,5.00
2019-01-14T10:30:23.931Z,5.10
2019-01-14T10:32:53.100Z,5.10
2019-01-14T10:35:22.301Z,5.10
2019-01-14T10:37:51.465Z,5.10
2019-01-14T10:40:20.337Z,5.00
2019-01-14T10:42:49.340Z,5.00
2019-01-14T10:45:22.764Z,5.20
2019-01-14T10:47:51.995Z,5.30
2019-01-14T10:50:21.094Z,5.30
2019-01-14T10:52:50.197Z,5.20
2019-01-14T10:55:19.647Z,5.20
2019-01-14T10:57:48.753Z,5.20
2019-01-14T11:00:25.974Z,5.20
2019-01-14T11:02:55.361Z,5.10
2019-01-14T11:05:27.783Z,5.20
2019-01-14T11:07:56.841Z,5.20
2019-01-14T11:10:25.820Z,5.30
2019-01-14T11:12:54.987Z,5.30
2019-01-14T11:15:24.089Z,5.20
2019-01-14T11:17:53.394Z,5.20
2019-01-14T11:20:25.009Z,5.20
2019-01-14T11:22:54.180Z,5.20
2019-01-14T11:25:23.272Z,5.20
2019-01-14T11:27:53.527Z,5.20
2019-01-14T11:30:28.829Z,5.30
2019-01-14T11:32:58.252Z,5.20
2019-01-14T11:35:27.630Z,5.20
2019-01-14T11:37:56.690Z,5.20
2019-01-14T11:40:28.609Z,5.20
2019-01-14T11:42:57.687Z,5.30
2019-01-14T11:45:27.014Z,5.20
2019-01-14T11:47:56.038Z,5.30
2019-01-14T11:50:28.513Z,5.20
2019-01-14T11:52:57.795Z,5.00
2019-01-14T11:55:27.828Z,5.00
2019-01-14T11:57:57.715Z,5.10
2019-01-14T12:00:27.632Z,5.10
2019-01-14T12:02:57.109Z,5.00
2019-01-14T12:05:26.225Z,4.90
2019-01-14T12:07:55.357Z,5.00
2019-01-14T12:10:24.441Z,5.00
2019-01-14T12:12:53.710Z,4.90
2019-01-14T12:15:25.088Z,4.90
2019-01-14T12:17:54.162Z,4.90
2019-01-14T12:20:23.692Z,4.90
2019-01-14T12:22:52.781Z,4.80
2019-01-14T12:25:22.013Z,4.90
2019-01-14T12:27:51.504Z,5.00
2019-01-14T12:30:30.126Z,5.00
2019-01-14T12:33:00.637Z,5.00
2019-01-14T12:35:30.175Z,5.10
2019-01-14T12:38:01.128Z,5.00
2019-01-14T12:40:32.755Z,5.00
2019-01-14T12:43:01.934Z,5.10
2019-01-14T12:45:31.049Z,5.10
2019-01-14T12:48:00.284Z,5.00
2019-01-14T12:50:29.738Z,5.10
2019-01-14T12:52:59.057Z,5.00
2019-01-14T12:55:28.668Z,5.00
2019-01-14T12:57:57.994Z,5.10
2019-01-14T13:00:28.870Z,5.00
2019-01-14T13:02:58.938Z,5.00
2019-01-14T13:05:31.775Z,5.10
2019-01-14T13:08:00.921Z,5.00
2019-01-14T13:10:30.705Z,5.00
2019-01-14T13:12:59.693Z,4.90
2019-01-14T13:15:29.829Z,4.90
2019-01-14T13:17:59.187Z,4.80
2019-01-14T13:20:28.496Z,4.80
2019-01-14T13:22:57.758Z,4.70
2019-01-14T13:25:27.194Z,4.80
2019-01-14T13:27:58.878Z,4.70
2019-01-14T13:30:30.651Z,4.70
2019-01-14T13:33:10.135Z,4.70
2019-01-14T13:35:39.194Z,4.60
2019-01-14T13:38:08.690Z,4.50
2019-01-14T13:40:37.912Z,4.60
2019-01-14T13:43:07.201Z,4.70
2019-01-14T13:45:36.311Z,4.80
2019-01-14T13:48:05.981Z,4.80
2019-01-14T13:50:35.245Z,4.90
2019-01-14T13:53:04.512Z,4.90
2019-01-14T13:55:33.709Z,4.80
2019-01-14T13:58:11.910Z,4.80
2019-01-14T14:00:50.103Z,4.80
2019-01-14T14:03:19.920Z,4.70
2019-01-14T14:05:49.249Z,4.70
2019-01-14T14:08:18.453Z,4.50
2019-01-14T14:10:47.663Z,4.40
2019-01-14T14:13:16.846Z,4.50
2019-01-14T14:15:46.299Z,4.60
2019-01-14T14:18:15.638Z,4.60
2019-01-14T14:20:45.124Z,4.50
2019-01-14T14:23:15.581Z,4.50
2019-01-14T14:25:44.871Z,4.50
2019-01-14T14:28:14.496Z,4.40
2019-01-14T14:30:57.071Z,4.30
2019-01-14T14:33:26.322Z,4.30
2019-01-14T14:35:55.669Z,4.30
2019-01-14T14:38:26.138Z,4.40
2019-01-14T14:40:57.691Z,4.50
2019-01-14T14:43:26.807Z,4.50
2019-01-14T14:45:56.228Z,4.50
2019-01-14T14:48:25.326Z,4.60
2019-01-14T14:50:55.695Z,4.50
2019-01-14T14:53:27.587Z,4.40
2019-01-14T14:55:56.923Z,4.30
2019-01-14T14:58:26.035Z,4.30
2019-01-14T15:00:55.693Z,4.20
2019-01-14T15:03:25.587Z,4.20
2019-01-14T15:06:00.848Z,4.30
2019-01-14T15:08:30.906Z,4.40
2019-01-14T15:11:03.228Z,4.40
2019-01-14T15:13:33.525Z,4.50
2019-01-14T15:16:02.734Z,4.40
2019-01-14T15:18:31.842Z,4.30
2019-01-14T15:21:01.301Z,4.20
2019-01-14T15:23:30.673Z,4.10
2019-01-14T15:29:41.442Z,4.10
2019-01-14T15:32:10.516Z,4.10
2019-01-14T15:34:40.874Z,4.20
2019-01-14T15:37:11.697Z,4.10
2019-01-14T15:39:41.857Z,4.10
2019-01-14T15:42:11.942Z,4.10
2019-01-14T15:44:41.895Z,4.00
2019-01-14T15:47:11.061Z,3.90
2019-01-14T15:49:42.280Z,3.90
2019-01-14T15:52:11.480Z,3.90
2019-01-14T15:54:40.684Z,3.90
2019-01-14T15:57:09.824Z,3.90
2019-01-14T15:59:38.999Z,3.90
2019-01-14T16:02:08.184Z,3.90
2019-01-14T16:04:37.310Z,4.00
2019-01-14T16:07:06.633Z,4.00
2019-01-14T16:09:38.503Z,4.00
2019-01-14T16:12:07.841Z,3.90
2019-01-14T16:14:37.161Z,4.00
2019-01-14T16:17:06.979Z,4.00
2019-01-14T16:19:36.336Z,4.00
2019-01-14T16:22:06.967Z,4.00
2019-01-14T16:24:37.143Z,4.10
2019-01-14T16:27:06.434Z,4.00
2019-01-14T16:29:35.406Z,4.00
2019-01-14T16:32:04.646Z,4.00
2019-01-14T16:34:34.339Z,4.00
2019-01-14T16:37:03.769Z,4.00
2019-01-14T16:39:32.905Z,3.90
2019-01-14T16:42:02.403Z,3.80
2019-01-14T16:44:32.107Z,3.80
2019-01-14T16:47:01.245Z,3.70
2019-01-14T16:49:30.539Z,3.70
2019-01-14T16:51:59.787Z,3.70
2019-01-14T16:54:28.980Z,3.70
2019-01-14T16:56:58.251Z,3.70
2019-01-14T16:59:27.397Z,3.70
2019-01-14T17:01:56.482Z,3.70
2019-01-14T17:04:25.544Z,3.70
2019-01-14T17:06:54.770Z,3.70
2019-01-14T17:09:23.949Z,3.60
2019-01-14T17:11:53.249Z,3.60
2019-01-14T17:14:22.556Z,3.60
2019-01-14T17:16:51.725Z,3.60
2019-01-14T17:19:20.893Z,3.60
2019-01-14T17:21:50.004Z,3.70
2019-01-14T17:24:19.030Z,3.70
2019-01-14T17:26:48.326Z,3.60
2019-01-14T17:29:17.718Z,3.60
2019-01-14T17:31:46.827Z,3.50
2019-01-14T17:34:16.077Z,3.50
2019-01-14T17:36:45.380Z,3.50
2019-01-14T17:39:14.702Z,3.50
2019-01-14T17:41:46.436Z,3.50
2019-01-14T17:44:15.567Z,3.60
2019-01-14T17:46:48.808Z,3.60
2019-01-14T17:49:24.027Z,3.60
2019-01-14T17:51:53.156Z,3.50
2019-01-14T17:54:22.874Z,3.40
2019-01-14T17:56:54.159Z,3.20
2019-01-14T17:59:25.805Z,3.20
2019-01-14T18:01:55.191Z,3.30
2019-01-14T18:04:24.323Z,3.30
2019-01-14T18:06:53.704Z,3.30
2019-01-14T18:09:22.822Z,3.40
2019-01-14T18:11:54.221Z,3.50
2019-01-14T18:14:23.358Z,3.40
2019-01-14T18:16:52.638Z,3.30
2019-01-14T18:19:21.891Z,3.30
2019-01-14T18:21:51.332Z,3.20
2019-01-14T18:24:20.452Z,3.30
2019-01-14T18:26:49.802Z,3.20
2019-01-14T18:29:19.036Z,3.20
2019-01-14T18:31:49.082Z,3.20
2019-01-14T18:34:18.495Z,3.20
2019-01-14T18:36:47.787Z,3.30
2019-01-14T18:39:17.363Z,3.20
2019-01-14T18:41:47.246Z,3.30
2019-01-14T18:44:16.482Z,3.40
2019-01-14T18:46:45.905Z,3.30
2019-01-14T18:49:14.946Z,3.30
2019-01-14T18:51:44.427Z,3.30
2019-01-14T18:54:13.794Z,3.30
2019-01-14T18:56:42.905Z,3.30
2019-01-14T18:59:12.121Z,3.40
2019-01-14T19:01:41.345Z,3.40
2019-01-14T19:04:12.553Z,3.30
2019-01-14T19:06:41.673Z,3.30
2019-01-14T19:09:12.077Z,3.30
2019-01-14T19:11:42.456Z,3.30
2019-01-14T19:14:11.624Z,3.30
2019-01-14T19:16:40.762Z,3.30
2019-01-14T19:19:09.894Z,3.30
2019-01-14T19:21:39.020Z,3.40
2019-01-14T19:24:08.096Z,3.30
2019-01-14T19:26:37.200Z,3.30
2019-01-14T19:29:06.416Z,3.40
2019-01-14T19:31:35.537Z,3.40
2019-01-14T19:34:04.822Z,3.40
2019-01-14T19:36:34.135Z,3.40
2019-01-14T19:39:05.539Z,3.40
2019-01-14T19:41:34.691Z,3.30
2019-01-14T19:44:04.002Z,3.40
2019-01-14T19:46:33.040Z,3.40
2019-01-14T19:49:02.742Z,3.40
2019-01-14T19:51:31.835Z,3.50
2019-01-14T19:54:01.314Z,3.40
2019-01-14T19:56:30.565Z,3.40
2019-01-14T19:58:59.759Z,3.40
2019-01-14T20:01:29.136Z,3.40
2019-01-14T20:03:58.255Z,3.40
2019-01-14T20:06:27.644Z,3.40
2019-01-14T20:08:56.733Z,3.40
2019-01-14T20:11:26.190Z,3.30
2019-01-14T20:13:55.225Z,3.40
2019-01-14T20:16:24.333Z,3.50
2019-01-14T20:18:54.025Z,3.50
2019-01-14T20:21:23.197Z,3.50
2019-01-14T20:23:52.520Z,3.50
2019-01-14T20:26:22.778Z,3.50
2019-01-14T20:28:52.115Z,3.60
2019-01-14T20:31:21.258Z,3.60
2019-01-14T20:33:50.428Z,3.60
2019-01-14T20:36:19.735Z,3.50
2019-01-14T20:38:48.842Z,3.50
2019-01-14T20:41:18.794Z,3.50
2019-01-14T20:43:48.169Z,3.50
2019-01-14T20:46:18.644Z,3.50
2019-01-14T20:48:48.553Z,3.50
2019-01-14T20:51:17.691Z,3.40
2019-01-14T20:53:46.782Z,3.40
2019-01-14T20:56:15.846Z,3.30
2019-01-14T20:58:45.024Z,3.30
2019-01-14T21:01:14.101Z,3.30
2019-01-14T21:03:43.338Z,3.20
2019-01-14T21:06:12.498Z,3.20
2019-01-14T21:08:41.685Z,3.30
2019-01-14T21:11:10.779Z,3.30
2019-01-14T21:13:41.185Z,3.40
2019-01-14T21:16:10.216Z,3.40
2019-01-14T21:18:39.322Z,3.40
2019-01-14T21:21:08.327Z,3.50
2019-01-14T21:23:37.365Z,3.50
2019-01-14T21:26:06.668Z,3.50
2019-01-14T21:28:37.009Z,3.50
2019-01-14T21:31:06.124Z,3.50
2019-01-14T21:33:35.362Z,3.50
2019-01-14T21:36:04.419Z,3.50
2019-01-14T21:38:33.518Z,3.50
2019-01-14T21:41:02.813Z,3.50
2019-01-14T21:43:31.852Z,3.40
2019-01-14T21:46:01.026Z,3.50
2019-01-14T21:48:30.027Z,3.40
2019-01-14T21:50:59.268Z,3.30
2019-01-14T21:53:29.497Z,3.30
2019-01-14T21:55:58.604Z,3.30
2019-01-14T21:58:27.785Z,3.20
2019-01-14T22:00:57.169Z,3.10
2019-01-14T22:03:26.419Z,3.10
2019-01-14T22:05:56.459Z,3.10
2019-01-14T22:08:25.959Z,3.20
2019-01-14T22:10:55.092Z,3.30
2019-01-14T22:13:24.393Z,3.40
2019-01-14T22:15:53.489Z,3.40
2019-01-14T22:18:22.595Z,3.40
2019-01-14T22:20:51.711Z,3.40
2019-01-14T22:23:20.938Z,3.40
2019-01-14T22:25:50.493Z,3.30
2019-01-14T22:28:19.680Z,3.40
2019-01-14T22:30:48.701Z,3.30
2019-01-14T22:33:17.834Z,3.20
2019-01-14T22:35:46.813Z,3.20
2019-01-14T22:38:15.859Z,3.20
2019-01-14T22:40:44.877Z,3.20
2019-01-14T22:43:14.027Z,3.20
2019-01-14T22:45:43.058Z,3.20
2019-01-14T22:48:12.311Z,3.20
2019-01-14T22:50:41.358Z,3.20
2019-01-14T22:53:10.398Z,3.30
2019-01-14T22:55:39.579Z,3.30
2019-01-14T22:58:08.761Z,3.30
2019-01-14T23:01:01.963Z,3.20
2019-01-14T23:03:31.063Z,3.10
2019-01-14T23:06:01.943Z,3.10
2019-01-14T23:08:31.155Z,3.10
2019-01-14T23:11:00.453Z,3.10
2019-01-14T23:13:29.663Z,3.10
2019-01-14T23:15:58.582Z,3.10
2019-01-14T23:18:27.651Z,3.10
2019-01-14T23:20:56.845Z,3.10
2019-01-14T23:23:25.959Z,3.20
2019-01-14T23:25:54.946Z,3.20
2019-01-14T23:28:24.043Z,3.20
2019-01-14T23:30:53.255Z,3.30
2019-01-14T23:33:22.584Z,3.30
2019-01-14T23:35:51.847Z,3.50
2019-01-14T23:38:21.306Z,3.50
2019-01-14T23:40:50.480Z,3.50
2019-01-14T23:43:19.717Z,3.40
2019-01-14T23:45:48.810Z,3.50
2019-01-14T23:48:17.858Z,3.50
2019-01-14T23:50:47.194Z,3.60
2019-01-14T23:53:16.227Z,3.60
2019-01-14T23:55:45.349Z,3.60
2019-01-14T23:58:14.715Z,3.60
